sensor_id;sensor_type;location;lat;lon;timestamp;P1;durP1;ratioP1;P2;durP2;ratioP2
45842;SDS011;31563;51.744;8.252;2024-01-16T00:00:17;2.72;;;1.17;;
45842;SDS011;31563;51.744;8.252;2024-01-16T00:02:45;2.83;;;0.95;;
45842;SDS011;31563;51.744;8.252;2024-01-16T00:05:15;2.20;;;0.70;;
45842;SDS011;31563;51.744;8.252;2024-01-16T00:07:43;1.17;;;0.50;;
45842;SDS011;31563;51.744;8.252;2024-01-16T00:10:11;2.55;;;0.82;;
45842;SDS011;31563;51.744;8.252;2024-01-16T00:12:39;2.58;;;0.80;;
45842;SDS011;31563;51.744;8.252;2024-01-16T00:15:07;3.33;;;1.02;;
45842;SDS011;31563;51.744;8.252;2024-01-16T00:17:36;1.45;;;0.50;;
45842;SDS011;31563;51.744;8.252;2024-01-16T00:20:04;3.42;;;0.80;;
45842;SDS011;31563;51.744;8.252;2024-01-16T00:22:34;2.50;;;1.15;;
45842;SDS011;31563;51.744;8.252;2024-01-16T00:25:02;1.83;;;0.63;;
45842;SDS011;31563;51.744;8.252;2024-01-16T00:27:32;3.03;;;1.02;;
45842;SDS011;31563;51.744;8.252;2024-01-16T00:30:00;3.20;;;1.02;;
45842;SDS011;31563;51.744;8.252;2024-01-16T00:32:28;1.48;;;0.70;;
45842;SDS011;31563;51.744;8.252;2024-01-16T00:34:56;2.38;;;0.80;;
45842;SDS011;31563;51.744;8.252;2024-01-16T00:37:24;1.77;;;0.77;;
45842;SDS011;31563;51.744;8.252;2024-01-16T00:39:53;2.35;;;0.70;;
45842;SDS011;31563;51.744;8.252;2024-01-16T00:42:21;1.63;;;0.70;;
45842;SDS011;31563;51.744;8.252;2024-01-16T00:44:49;2.55;;;0.88;;
45842;SDS011;31563;51.744;8.252;2024-01-16T00:47:17;4.60;;;0.80;;
45842;SDS011;31563;51.744;8.252;2024-01-16T00:49:45;2.83;;;1.00;;
45842;SDS011;31563;51.744;8.252;2024-01-16T00:52:13;2.80;;;0.90;;
45842;SDS011;31563;51.744;8.252;2024-01-16T00:54:42;2.17;;;1.00;;
45842;SDS011;31563;51.744;8.252;2024-01-16T00:57:11;2.72;;;0.90;;
45842;SDS011;31563;51.744;8.252;2024-01-16T00:59:41;1.77;;;0.77;;
45842;SDS011;31563;51.744;8.252;2024-01-16T01:02:09;3.20;;;0.80;;
45842;SDS011;31563;51.744;8.252;2024-01-16T01:04:38;2.67;;;0.70;;
45842;SDS011;31563;51.744;8.252;2024-01-16T01:07:07;1.63;;;0.60;;
45842;SDS011;31563;51.744;8.252;2024-01-16T01:09:35;3.30;;;1.08;;
45842;SDS011;31563;51.744;8.252;2024-01-16T01:12:03;2.35;;;0.80;;
45842;SDS011;31563;51.744;8.252;2024-01-16T01:14:33;2.63;;;0.80;;
45842;SDS011;31563;51.744;8.252;2024-01-16T01:17:01;2.35;;;0.80;;
45842;SDS011;31563;51.744;8.252;2024-01-16T01:19:29;2.47;;;0.68;;
45842;SDS011;31563;51.744;8.252;2024-01-16T01:21:57;1.88;;;0.70;;
45842;SDS011;31563;51.744;8.252;2024-01-16T01:24:25;2.28;;;0.77;;
45842;SDS011;31563;51.744;8.252;2024-01-16T01:26:53;2.95;;;0.70;;
45842;SDS011;31563;51.744;8.252;2024-01-16T01:29:21;2.10;;;0.70;;
45842;SDS011;31563;51.744;8.252;2024-01-16T01:31:50;1.55;;;0.52;;
45842;SDS011;31563;51.744;8.252;2024-01-16T01:34:18;2.10;;;0.40;;
45842;SDS011;31563;51.744;8.252;2024-01-16T01:36:46;3.15;;;0.70;;
45842;SDS011;31563;51.744;8.252;2024-01-16T01:39:14;2.88;;;0.70;;
45842;SDS011;31563;51.744;8.252;2024-01-16T01:41:42;1.38;;;0.60;;
45842;SDS011;31563;51.744;8.252;2024-01-16T01:44:09;2.20;;;0.77;;
45842;SDS011;31563;51.744;8.252;2024-01-16T01:46:42;1.98;;;0.80;;
45842;SDS011;31563;51.744;8.252;2024-01-16T01:49:13;1.60;;;0.57;;
45842;SDS011;31563;51.744;8.252;2024-01-16T01:51:42;3.03;;;0.82;;
45842;SDS011;31563;51.744;8.252;2024-01-16T01:54:11;2.95;;;0.95;;
45842;SDS011;31563;51.744;8.252;2024-01-16T01:59:10;2.63;;;1.10;;
45842;SDS011;31563;51.744;8.252;2024-01-16T02:01:38;2.50;;;0.70;;
45842;SDS011;31563;51.744;8.252;2024-01-16T02:04:07;1.75;;;0.88;;
45842;SDS011;31563;51.744;8.252;2024-01-16T02:09:06;3.22;;;0.75;;
45842;SDS011;31563;51.744;8.252;2024-01-16T02:11:35;1.85;;;0.80;;
45842;SDS011;31563;51.744;8.252;2024-01-16T02:14:03;2.75;;;1.08;;
45842;SDS011;31563;51.744;8.252;2024-01-16T02:16:35;2.42;;;0.93;;
45842;SDS011;31563;51.744;8.252;2024-01-16T02:19:04;1.75;;;0.70;;
45842;SDS011;31563;51.744;8.252;2024-01-16T02:21:34;4.10;;;1.08;;
45842;SDS011;31563;51.744;8.252;2024-01-16T02:24:06;1.75;;;0.80;;
45842;SDS011;31563;51.744;8.252;2024-01-16T02:26:35;1.63;;;0.60;;
45842;SDS011;31563;51.744;8.252;2024-01-16T02:29:03;1.63;;;0.82;;
45842;SDS011;31563;51.744;8.252;2024-01-16T02:31:31;1.83;;;0.75;;
45842;SDS011;31563;51.744;8.252;2024-01-16T02:33:59;3.42;;;0.80;;
45842;SDS011;31563;51.744;8.252;2024-01-16T02:36:28;3.53;;;1.13;;
45842;SDS011;31563;51.744;8.252;2024-01-16T02:38:56;1.90;;;0.73;;
45842;SDS011;31563;51.744;8.252;2024-01-16T02:41:25;2.08;;;0.60;;
45842;SDS011;31563;51.744;8.252;2024-01-16T02:43:53;2.08;;;0.95;;
45842;SDS011;31563;51.744;8.252;2024-01-16T02:46:21;2.47;;;1.00;;
45842;SDS011;31563;51.744;8.252;2024-01-16T02:48:49;1.77;;;0.80;;
45842;SDS011;31563;51.744;8.252;2024-01-16T02:51:17;1.80;;;0.80;;
45842;SDS011;31563;51.744;8.252;2024-01-16T02:53:45;2.17;;;0.80;;
45842;SDS011;31563;51.744;8.252;2024-01-16T02:56:12;2.83;;;1.10;;
45842;SDS011;31563;51.744;8.252;2024-01-16T02:58:42;2.20;;;0.80;;
45842;SDS011;31563;51.744;8.252;2024-01-16T03:01:10;2.00;;;1.13;;
45842;SDS011;31563;51.744;8.252;2024-01-16T03:03:38;2.08;;;0.90;;
45842;SDS011;31563;51.744;8.252;2024-01-16T03:06:06;1.13;;;0.90;;
45842;SDS011;31563;51.744;8.252;2024-01-16T03:08:34;1.63;;;0.88;;
45842;SDS011;31563;51.744;8.252;2024-01-16T03:11:02;2.50;;;0.70;;
45842;SDS011;31563;51.744;8.252;2024-01-16T03:13:30;2.42;;;0.85;;
45842;SDS011;31563;51.744;8.252;2024-01-16T03:16:00;2.05;;;0.90;;
45842;SDS011;31563;51.744;8.252;2024-01-16T03:18:28;1.73;;;0.60;;
45842;SDS011;31563;51.744;8.252;2024-01-16T03:20:56;2.00;;;0.82;;
45842;SDS011;31563;51.744;8.252;2024-01-16T03:23:26;2.22;;;1.08;;
45842;SDS011;31563;51.744;8.252;2024-01-16T03:25:53;2.67;;;0.93;;
45842;SDS011;31563;51.744;8.252;2024-01-16T03:28:21;2.08;;;0.70;;
45842;SDS011;31563;51.744;8.252;2024-01-16T03:30:50;2.55;;;1.13;;
45842;SDS011;31563;51.744;8.252;2024-01-16T03:33:19;1.63;;;0.60;;
45842;SDS011;31563;51.744;8.252;2024-01-16T03:35:47;1.95;;;0.85;;
45842;SDS011;31563;51.744;8.252;2024-01-16T03:38:15;2.28;;;0.90;;
45842;SDS011;31563;51.744;8.252;2024-01-16T03:40:43;2.15;;;0.73;;
45842;SDS011;31563;51.744;8.252;2024-01-16T03:43:11;3.05;;;1.00;;
45842;SDS011;31563;51.744;8.252;2024-01-16T03:45:39;2.15;;;0.73;;
45842;SDS011;31563;51.744;8.252;2024-01-16T03:48:07;3.22;;;1.25;;
45842;SDS011;31563;51.744;8.252;2024-01-16T03:50:36;2.45;;;1.05;;
45842;SDS011;31563;51.744;8.252;2024-01-16T03:53:05;2.30;;;0.90;;
45842;SDS011;31563;51.744;8.252;2024-01-16T03:55:35;1.60;;;0.95;;
45842;SDS011;31563;51.744;8.252;2024-01-16T03:58:02;2.08;;;0.80;;
45842;SDS011;31563;51.744;8.252;2024-01-16T04:00:30;1.58;;;0.60;;
45842;SDS011;31563;51.744;8.252;2024-01-16T04:02:58;2.05;;;0.90;;
45842;SDS011;31563;51.744;8.252;2024-01-16T04:05:26;2.97;;;1.10;;
45842;SDS011;31563;51.744;8.252;2024-01-16T04:07:56;2.20;;;1.25;;
45842;SDS011;31563;51.744;8.252;2024-01-16T04:10:24;3.05;;;1.40;;
45842;SDS011;31563;51.744;8.252;2024-01-16T04:12:52;1.90;;;0.98;;
45842;SDS011;31563;51.744;8.252;2024-01-16T04:15:20;1.98;;;0.90;;
45842;SDS011;31563;51.744;8.252;2024-01-16T04:17:49;2.05;;;0.80;;
45842;SDS011;31563;51.744;8.252;2024-01-16T04:20:17;2.42;;;1.15;;
45842;SDS011;31563;51.744;8.252;2024-01-16T04:22:45;2.65;;;1.10;;
45842;SDS011;31563;51.744;8.252;2024-01-16T04:25:14;1.25;;;1.00;;
45842;SDS011;31563;51.744;8.252;2024-01-16T04:27:42;1.70;;;0.80;;
45842;SDS011;31563;51.744;8.252;2024-01-16T04:30:11;2.30;;;1.00;;
45842;SDS011;31563;51.744;8.252;2024-01-16T04:32:39;2.95;;;0.98;;
45842;SDS011;31563;51.744;8.252;2024-01-16T04:35:08;2.53;;;1.00;;
45842;SDS011;31563;51.744;8.252;2024-01-16T04:37:36;3.15;;;1.13;;
45842;SDS011;31563;51.744;8.252;2024-01-16T04:40:04;2.20;;;0.90;;
45842;SDS011;31563;51.744;8.252;2024-01-16T04:42:34;1.73;;;0.80;;
45842;SDS011;31563;51.744;8.252;2024-01-16T04:45:02;2.13;;;1.00;;
45842;SDS011;31563;51.744;8.252;2024-01-16T04:47:30;3.28;;;2.00;;
45842;SDS011;31563;51.744;8.252;2024-01-16T04:49:58;3.60;;;2.05;;
45842;SDS011;31563;51.744;8.252;2024-01-16T04:52:26;4.07;;;1.67;;
45842;SDS011;31563;51.744;8.252;2024-01-16T04:54:54;2.38;;;1.70;;
45842;SDS011;31563;51.744;8.252;2024-01-16T04:57:22;2.80;;;2.03;;
45842;SDS011;31563;51.744;8.252;2024-01-16T04:59:52;2.55;;;1.50;;
45842;SDS011;31563;51.744;8.252;2024-01-16T05:02:20;4.35;;;1.92;;
45842;SDS011;31563;51.744;8.252;2024-01-16T05:04:48;2.45;;;1.48;;
45842;SDS011;31563;51.744;8.252;2024-01-16T05:07:18;4.37;;;1.60;;
45842;SDS011;31563;51.744;8.252;2024-01-16T05:09:47;3.08;;;1.40;;
45842;SDS011;31563;51.744;8.252;2024-01-16T05:12:15;2.70;;;1.50;;
45842;SDS011;31563;51.744;8.252;2024-01-16T05:14:43;1.95;;;1.23;;
45842;SDS011;31563;51.744;8.252;2024-01-16T05:17:12;3.35;;;1.42;;
45842;SDS011;31563;51.744;8.252;2024-01-16T05:19:40;2.43;;;1.53;;
45842;SDS011;31563;51.744;8.252;2024-01-16T05:22:09;4.00;;;1.85;;
45842;SDS011;31563;51.744;8.252;2024-01-16T05:24:38;3.20;;;1.80;;
45842;SDS011;31563;51.744;8.252;2024-01-16T05:27:06;3.15;;;2.05;;
45842;SDS011;31563;51.744;8.252;2024-01-16T05:29:35;3.05;;;1.58;;
45842;SDS011;31563;51.744;8.252;2024-01-16T05:32:07;1.95;;;1.40;;
45842;SDS011;31563;51.744;8.252;2024-01-16T05:34:36;3.15;;;1.55;;
45842;SDS011;31563;51.744;8.252;2024-01-16T05:37:04;2.97;;;1.57;;
45842;SDS011;31563;51.744;8.252;2024-01-16T05:39:32;3.88;;;1.58;;
45842;SDS011;31563;51.744;8.252;2024-01-16T05:42:00;2.63;;;1.73;;
45842;SDS011;31563;51.744;8.252;2024-01-16T05:44:28;4.03;;;1.90;;
45842;SDS011;31563;51.744;8.252;2024-01-16T05:46:56;3.03;;;1.90;;
45842;SDS011;31563;51.744;8.252;2024-01-16T05:49:24;3.40;;;2.35;;
45842;SDS011;31563;51.744;8.252;2024-01-16T05:51:53;3.08;;;1.88;;
45842;SDS011;31563;51.744;8.252;2024-01-16T05:54:21;2.53;;;1.77;;
45842;SDS011;31563;51.744;8.252;2024-01-16T05:56:49;3.50;;;2.10;;
45842;SDS011;31563;51.744;8.252;2024-01-16T05:59:19;4.28;;;2.60;;
45842;SDS011;31563;51.744;8.252;2024-01-16T06:01:46;3.05;;;2.20;;
45842;SDS011;31563;51.744;8.252;2024-01-16T06:04:15;3.08;;;1.83;;
45842;SDS011;31563;51.744;8.252;2024-01-16T06:06:43;8.20;;;6.22;;
45842;SDS011;31563;51.744;8.252;2024-01-16T06:09:15;6.32;;;3.33;;
45842;SDS011;31563;51.744;8.252;2024-01-16T06:11:43;4.77;;;3.80;;
45842;SDS011;31563;51.744;8.252;2024-01-16T06:14:11;5.50;;;3.22;;
45842;SDS011;31563;51.744;8.252;2024-01-16T06:16:39;5.18;;;3.45;;
45842;SDS011;31563;51.744;8.252;2024-01-16T06:19:07;5.18;;;3.28;;
45842;SDS011;31563;51.744;8.252;2024-01-16T06:21:35;7.97;;;5.25;;
45842;SDS011;31563;51.744;8.252;2024-01-16T06:24:03;9.07;;;8.10;;
45842;SDS011;31563;51.744;8.252;2024-01-16T06:26:32;11.38;;;10.27;;
45842;SDS011;31563;51.744;8.252;2024-01-16T06:29:00;9.93;;;7.60;;
45842;SDS011;31563;51.744;8.252;2024-01-16T06:31:29;11.75;;;8.55;;
45842;SDS011;31563;51.744;8.252;2024-01-16T06:33:57;11.25;;;7.75;;
45842;SDS011;31563;51.744;8.252;2024-01-16T06:36:25;12.50;;;8.30;;
45842;SDS011;31563;51.744;8.252;2024-01-16T06:38:53;12.25;;;9.68;;
45842;SDS011;31563;51.744;8.252;2024-01-16T06:41:21;9.95;;;8.95;;
45842;SDS011;31563;51.744;8.252;2024-01-16T06:43:50;7.93;;;6.93;;
45842;SDS011;31563;51.744;8.252;2024-01-16T06:46:18;9.60;;;7.33;;
45842;SDS011;31563;51.744;8.252;2024-01-16T06:48:46;8.52;;;6.85;;
45842;SDS011;31563;51.744;8.252;2024-01-16T06:51:15;10.63;;;7.32;;
45842;SDS011;31563;51.744;8.252;2024-01-16T06:53:44;9.60;;;7.97;;
45842;SDS011;31563;51.744;8.252;2024-01-16T06:56:12;10.75;;;8.40;;
45842;SDS011;31563;51.744;8.252;2024-01-16T06:58:40;9.55;;;6.35;;
45842;SDS011;31563;51.744;8.252;2024-01-16T07:01:10;13.13;;;8.43;;
45842;SDS011;31563;51.744;8.252;2024-01-16T07:03:38;9.30;;;7.65;;
45842;SDS011;31563;51.744;8.252;2024-01-16T07:06:06;9.25;;;7.65;;
45842;SDS011;31563;51.744;8.252;2024-01-16T07:08:34;8.18;;;6.80;;
45842;SDS011;31563;51.744;8.252;2024-01-16T07:11:02;10.13;;;7.00;;
45842;SDS011;31563;51.744;8.252;2024-01-16T07:13:34;8.60;;;6.72;;
45842;SDS011;31563;51.744;8.252;2024-01-16T07:16:01;9.52;;;6.60;;
45842;SDS011;31563;51.744;8.252;2024-01-16T07:18:31;6.35;;;5.40;;
45842;SDS011;31563;51.744;8.252;2024-01-16T07:20:59;9.48;;;6.28;;
45842;SDS011;31563;51.744;8.252;2024-01-16T07:23:29;7.57;;;6.35;;
45842;SDS011;31563;51.744;8.252;2024-01-16T07:25:57;8.95;;;5.97;;
45842;SDS011;31563;51.744;8.252;2024-01-16T07:28:26;10.03;;;5.57;;
45842;SDS011;31563;51.744;8.252;2024-01-16T07:30:54;7.30;;;6.03;;
45842;SDS011;31563;51.744;8.252;2024-01-16T07:33:22;7.47;;;6.03;;
45842;SDS011;31563;51.744;8.252;2024-01-16T07:35:51;5.93;;;5.32;;
45842;SDS011;31563;51.744;8.252;2024-01-16T07:38:19;6.97;;;5.82;;
45842;SDS011;31563;51.744;8.252;2024-01-16T07:40:47;7.60;;;5.25;;
45842;SDS011;31563;51.744;8.252;2024-01-16T07:43:15;5.53;;;5.03;;
45842;SDS011;31563;51.744;8.252;2024-01-16T07:45:43;7.65;;;5.20;;
45842;SDS011;31563;51.744;8.252;2024-01-16T07:48:11;6.10;;;5.30;;
45842;SDS011;31563;51.744;8.252;2024-01-16T07:50:39;9.88;;;7.03;;
45842;SDS011;31563;51.744;8.252;2024-01-16T07:53:08;10.25;;;9.02;;
45842;SDS011;31563;51.744;8.252;2024-01-16T07:55:36;9.37;;;7.20;;
45842;SDS011;31563;51.744;8.252;2024-01-16T07:58:04;8.88;;;6.95;;
45842;SDS011;31563;51.744;8.252;2024-01-16T08:00:32;8.48;;;6.80;;
45842;SDS011;31563;51.744;8.252;2024-01-16T08:03:00;8.38;;;6.60;;
45842;SDS011;31563;51.744;8.252;2024-01-16T08:05:28;10.18;;;6.10;;
45842;SDS011;31563;51.744;8.252;2024-01-16T08:07:56;11.07;;;5.75;;
45842;SDS011;31563;51.744;8.252;2024-01-16T08:10:26;10.50;;;5.85;;
45842;SDS011;31563;51.744;8.252;2024-01-16T08:12:54;8.07;;;5.80;;
45842;SDS011;31563;51.744;8.252;2024-01-16T08:15:22;8.68;;;5.20;;
45842;SDS011;31563;51.744;8.252;2024-01-16T08:17:49;7.22;;;5.38;;
45842;SDS011;31563;51.744;8.252;2024-01-16T08:20:18;5.70;;;4.45;;
45842;SDS011;31563;51.744;8.252;2024-01-16T08:22:46;7.90;;;4.93;;
45842;SDS011;31563;51.744;8.252;2024-01-16T08:27:45;5.93;;;4.75;;
45842;SDS011;31563;51.744;8.252;2024-01-16T08:30:13;6.50;;;4.33;;
45842;SDS011;31563;51.744;8.252;2024-01-16T08:32:41;6.55;;;4.03;;
45842;SDS011;31563;51.744;8.252;2024-01-16T08:35:09;12.27;;;5.00;;
45842;SDS011;31563;51.744;8.252;2024-01-16T08:37:37;9.88;;;5.03;;
45842;SDS011;31563;51.744;8.252;2024-01-16T08:40:06;10.02;;;4.60;;
45842;SDS011;31563;51.744;8.252;2024-01-16T08:42:34;9.57;;;5.53;;
45842;SDS011;31563;51.744;8.252;2024-01-16T08:45:04;9.95;;;4.85;;
45842;SDS011;31563;51.744;8.252;2024-01-16T08:47:32;10.98;;;5.20;;
45842;SDS011;31563;51.744;8.252;2024-01-16T08:50:01;10.27;;;4.60;;
45842;SDS011;31563;51.744;8.252;2024-01-16T08:52:29;10.10;;;5.00;;
45842;SDS011;31563;51.744;8.252;2024-01-16T08:54:57;8.63;;;4.68;;
45842;SDS011;31563;51.744;8.252;2024-01-16T08:57:25;8.48;;;4.07;;
45842;SDS011;31563;51.744;8.252;2024-01-16T08:59:56;9.48;;;4.45;;
45842;SDS011;31563;51.744;8.252;2024-01-16T09:02:25;8.05;;;4.63;;
45842;SDS011;31563;51.744;8.252;2024-01-16T09:04:55;9.20;;;4.28;;
45842;SDS011;31563;51.744;8.252;2024-01-16T09:07:23;8.02;;;4.20;;
45842;SDS011;31563;51.744;8.252;2024-01-16T09:09:51;10.23;;;4.28;;
45842;SDS011;31563;51.744;8.252;2024-01-16T09:12:19;8.65;;;4.15;;
45842;SDS011;31563;51.744;8.252;2024-01-16T09:14:47;8.15;;;3.88;;
45842;SDS011;31563;51.744;8.252;2024-01-16T09:17:15;7.38;;;4.30;;
45842;SDS011;31563;51.744;8.252;2024-01-16T09:19:44;7.47;;;4.53;;
45842;SDS011;31563;51.744;8.252;2024-01-16T09:22:12;6.70;;;3.97;;
45842;SDS011;31563;51.744;8.252;2024-01-16T09:24:42;9.27;;;4.75;;
45842;SDS011;31563;51.744;8.252;2024-01-16T09:27:10;7.50;;;4.53;;
45842;SDS011;31563;51.744;8.252;2024-01-16T09:29:38;7.97;;;3.90;;
45842;SDS011;31563;51.744;8.252;2024-01-16T09:32:06;5.88;;;4.63;;
45842;SDS011;31563;51.744;8.252;2024-01-16T09:34:35;8.63;;;4.60;;
45842;SDS011;31563;51.744;8.252;2024-01-16T09:37:04;9.43;;;4.30;;
45842;SDS011;31563;51.744;8.252;2024-01-16T09:39:32;5.85;;;4.20;;
45842;SDS011;31563;51.744;8.252;2024-01-16T09:42:00;7.47;;;3.97;;
45842;SDS011;31563;51.744;8.252;2024-01-16T09:44:29;8.98;;;5.03;;
45842;SDS011;31563;51.744;8.252;2024-01-16T09:46:57;8.50;;;4.05;;
45842;SDS011;31563;51.744;8.252;2024-01-16T09:49:26;7.40;;;4.22;;
45842;SDS011;31563;51.744;8.252;2024-01-16T09:54:26;7.00;;;4.35;;
45842;SDS011;31563;51.744;8.252;2024-01-16T09:56:54;6.30;;;3.77;;
45842;SDS011;31563;51.744;8.252;2024-01-16T09:59:25;28.33;;;6.80;;
45842;SDS011;31563;51.744;8.252;2024-01-16T10:01:54;14.85;;;7.32;;
45842;SDS011;31563;51.744;8.252;2024-01-16T10:04:24;13.43;;;6.53;;
45842;SDS011;31563;51.744;8.252;2024-01-16T10:06:54;23.60;;;8.55;;
45842;SDS011;31563;51.744;8.252;2024-01-16T10:09:26;16.13;;;7.03;;
45842;SDS011;31563;51.744;8.252;2024-01-16T10:11:54;18.13;;;6.73;;
45842;SDS011;31563;51.744;8.252;2024-01-16T10:14:23;16.05;;;6.32;;
45842;SDS011;31563;51.744;8.252;2024-01-16T10:16:54;18.98;;;6.00;;
45842;SDS011;31563;51.744;8.252;2024-01-16T10:19:24;16.35;;;5.80;;
45842;SDS011;31563;51.744;8.252;2024-01-16T10:22:07;14.65;;;4.80;;
45842;SDS011;31563;51.744;8.252;2024-01-16T10:24:36;12.55;;;5.38;;
45842;SDS011;31563;51.744;8.252;2024-01-16T10:27:04;13.63;;;4.90;;
45842;SDS011;31563;51.744;8.252;2024-01-16T10:29:32;13.55;;;5.40;;
45842;SDS011;31563;51.744;8.252;2024-01-16T10:32:15;11.30;;;4.75;;
45842;SDS011;31563;51.744;8.252;2024-01-16T10:35:05;12.80;;;4.35;;
45842;SDS011;31563;51.744;8.252;2024-01-16T10:37:43;13.85;;;4.38;;
45842;SDS011;31563;51.744;8.252;2024-01-16T10:40:17;9.20;;;4.35;;
45842;SDS011;31563;51.744;8.252;2024-01-16T10:42:56;12.43;;;4.72;;
45842;SDS011;31563;51.744;8.252;2024-01-16T10:45:25;9.73;;;4.68;;
45842;SDS011;31563;51.744;8.252;2024-01-16T10:48:00;10.43;;;3.90;;
45842;SDS011;31563;51.744;8.252;2024-01-16T10:50:30;10.85;;;3.53;;
45842;SDS011;31563;51.744;8.252;2024-01-16T10:52:59;11.60;;;4.10;;
45842;SDS011;31563;51.744;8.252;2024-01-16T10:55:29;12.33;;;3.97;;
45842;SDS011;31563;51.744;8.252;2024-01-16T10:57:58;8.90;;;3.38;;
45842;SDS011;31563;51.744;8.252;2024-01-16T11:00:28;12.13;;;3.95;;
45842;SDS011;31563;51.744;8.252;2024-01-16T11:03:01;7.97;;;3.17;;
45842;SDS011;31563;51.744;8.252;2024-01-16T11:05:32;9.07;;;3.35;;
45842;SDS011;31563;51.744;8.252;2024-01-16T11:08:03;7.70;;;3.45;;
45842;SDS011;31563;51.744;8.252;2024-01-16T11:10:33;7.32;;;3.22;;
45842;SDS011;31563;51.744;8.252;2024-01-16T11:13:03;6.88;;;3.53;;
45842;SDS011;31563;51.744;8.252;2024-01-16T11:15:32;7.65;;;3.10;;
45842;SDS011;31563;51.744;8.252;2024-01-16T11:18:01;7.80;;;3.20;;
45842;SDS011;31563;51.744;8.252;2024-01-16T11:20:31;5.25;;;3.22;;
45842;SDS011;31563;51.744;8.252;2024-01-16T11:23:21;5.63;;;2.63;;
45842;SDS011;31563;51.744;8.252;2024-01-16T11:25:51;6.13;;;2.60;;
45842;SDS011;31563;51.744;8.252;2024-01-16T11:28:19;8.53;;;2.50;;
45842;SDS011;31563;51.744;8.252;2024-01-16T11:30:47;7.38;;;3.03;;
45842;SDS011;31563;51.744;8.252;2024-01-16T11:39:20;5.30;;;2.35;;
45842;SDS011;31563;51.744;8.252;2024-01-16T11:41:52;6.28;;;2.75;;
45842;SDS011;31563;51.744;8.252;2024-01-16T11:44:40;6.63;;;2.47;;
45842;SDS011;31563;51.744;8.252;2024-01-16T11:47:14;6.90;;;2.80;;
45842;SDS011;31563;51.744;8.252;2024-01-16T11:49:44;4.50;;;2.40;;
45842;SDS011;31563;51.744;8.252;2024-01-16T11:52:13;9.35;;;3.33;;
45842;SDS011;31563;51.744;8.252;2024-01-16T11:54:41;9.13;;;3.35;;
45842;SDS011;31563;51.744;8.252;2024-01-16T11:57:17;7.97;;;2.95;;
45842;SDS011;31563;51.744;8.252;2024-01-16T12:00:18;9.90;;;2.95;;
45842;SDS011;31563;51.744;8.252;2024-01-16T12:02:51;8.05;;;2.75;;
45842;SDS011;31563;51.744;8.252;2024-01-16T12:05:21;9.75;;;2.92;;
45842;SDS011;31563;51.744;8.252;2024-01-16T12:07:50;7.22;;;3.50;;
45842;SDS011;31563;51.744;8.252;2024-01-16T12:10:20;7.10;;;2.60;;
45842;SDS011;31563;51.744;8.252;2024-01-16T12:15:28;6.45;;;2.97;;
45842;SDS011;31563;51.744;8.252;2024-01-16T12:17:56;7.07;;;2.72;;
45842;SDS011;31563;51.744;8.252;2024-01-16T12:20:26;8.10;;;2.60;;
45842;SDS011;31563;51.744;8.252;2024-01-16T12:22:56;8.02;;;2.83;;
45842;SDS011;31563;51.744;8.252;2024-01-16T12:25:25;6.15;;;2.28;;
45842;SDS011;31563;51.744;8.252;2024-01-16T12:28:15;23.85;;;4.55;;
45842;SDS011;31563;51.744;8.252;2024-01-16T12:30:58;32.97;;;4.50;;
45842;SDS011;31563;51.744;8.252;2024-01-16T12:33:28;42.05;;;5.00;;
45842;SDS011;31563;51.744;8.252;2024-01-16T12:36:00;43.97;;;5.68;;
45842;SDS011;31563;51.744;8.252;2024-01-16T12:38:31;45.85;;;5.25;;
45842;SDS011;31563;51.744;8.252;2024-01-16T12:40:59;49.92;;;6.57;;
45842;SDS011;31563;51.744;8.252;2024-01-16T12:43:31;46.80;;;6.28;;
45842;SDS011;31563;51.744;8.252;2024-01-16T12:45:59;48.75;;;5.85;;
45842;SDS011;31563;51.744;8.252;2024-01-16T12:48:28;43.45;;;6.00;;
45842;SDS011;31563;51.744;8.252;2024-01-16T12:50:59;42.97;;;4.75;;
45842;SDS011;31563;51.744;8.252;2024-01-16T12:53:29;42.83;;;6.30;;
45842;SDS011;31563;51.744;8.252;2024-01-16T12:55:58;31.88;;;5.18;;
45842;SDS011;31563;51.744;8.252;2024-01-16T12:58:32;37.05;;;6.15;;
45842;SDS011;31563;51.744;8.252;2024-01-16T13:04:05;54.75;;;8.85;;
45842;SDS011;31563;51.744;8.252;2024-01-16T13:06:33;44.78;;;7.22;;
45842;SDS011;31563;51.744;8.252;2024-01-16T13:09:06;46.70;;;7.78;;
45842;SDS011;31563;51.744;8.252;2024-01-16T13:11:50;32.13;;;6.63;;
45842;SDS011;31563;51.744;8.252;2024-01-16T13:14:23;39.38;;;8.10;;
45842;SDS011;31563;51.744;8.252;2024-01-16T13:16:51;40.58;;;7.00;;
45842;SDS011;31563;51.744;8.252;2024-01-16T13:19:21;32.05;;;6.75;;
45842;SDS011;31563;51.744;8.252;2024-01-16T13:21:50;31.27;;;6.20;;
45842;SDS011;31563;51.744;8.252;2024-01-16T13:24:18;33.15;;;6.22;;
45842;SDS011;31563;51.744;8.252;2024-01-16T13:26:49;34.10;;;6.90;;
45842;SDS011;31563;51.744;8.252;2024-01-16T13:29:18;31.17;;;7.25;;
45842;SDS011;31563;51.744;8.252;2024-01-16T13:31:48;18.17;;;4.40;;
45842;SDS011;31563;51.744;8.252;2024-01-16T13:34:21;13.27;;;3.13;;
45842;SDS011;31563;51.744;8.252;2024-01-16T13:36:52;8.77;;;3.05;;
45842;SDS011;31563;51.744;8.252;2024-01-16T13:39:41;11.93;;;3.57;;
45842;SDS011;31563;51.744;8.252;2024-01-16T13:42:09;17.23;;;3.40;;
45842;SDS011;31563;51.744;8.252;2024-01-16T13:44:37;12.30;;;3.85;;
45842;SDS011;31563;51.744;8.252;2024-01-16T13:47:06;13.88;;;2.80;;
45842;SDS011;31563;51.744;8.252;2024-01-16T13:49:40;10.43;;;2.90;;
45842;SDS011;31563;51.744;8.252;2024-01-16T13:52:08;14.35;;;2.65;;
45842;SDS011;31563;51.744;8.252;2024-01-16T13:54:36;8.13;;;3.08;;
45842;SDS011;31563;51.744;8.252;2024-01-16T13:57:06;11.25;;;3.67;;
45842;SDS011;31563;51.744;8.252;2024-01-16T13:59:37;7.15;;;2.33;;
45842;SDS011;31563;51.744;8.252;2024-01-16T14:02:06;11.38;;;2.95;;
45842;SDS011;31563;51.744;8.252;2024-01-16T14:04:35;8.25;;;3.30;;
45842;SDS011;31563;51.744;8.252;2024-01-16T14:07:03;9.02;;;2.25;;
45842;SDS011;31563;51.744;8.252;2024-01-16T14:09:39;10.23;;;2.60;;
45842;SDS011;31563;51.744;8.252;2024-01-16T14:12:11;9.25;;;2.92;;
45842;SDS011;31563;51.744;8.252;2024-01-16T14:14:40;6.15;;;2.35;;
45842;SDS011;31563;51.744;8.252;2024-01-16T14:17:10;6.85;;;2.75;;
45842;SDS011;31563;51.744;8.252;2024-01-16T14:19:38;5.55;;;2.40;;
45842;SDS011;31563;51.744;8.252;2024-01-16T14:22:06;6.47;;;2.40;;
45842;SDS011;31563;51.744;8.252;2024-01-16T14:24:34;7.78;;;2.58;;
45842;SDS011;31563;51.744;8.252;2024-01-16T14:27:04;7.95;;;2.38;;
45842;SDS011;31563;51.744;8.252;2024-01-16T14:29:32;7.43;;;2.33;;
45842;SDS011;31563;51.744;8.252;2024-01-16T14:34:32;6.63;;;2.35;;
45842;SDS011;31563;51.744;8.252;2024-01-16T14:37:00;6.22;;;2.10;;
45842;SDS011;31563;51.744;8.252;2024-01-16T14:39:27;5.00;;;1.75;;
45842;SDS011;31563;51.744;8.252;2024-01-16T14:41:57;6.03;;;1.95;;
45842;SDS011;31563;51.744;8.252;2024-01-16T14:44:25;5.50;;;2.25;;
45842;SDS011;31563;51.744;8.252;2024-01-16T14:46:53;6.05;;;2.15;;
45842;SDS011;31563;51.744;8.252;2024-01-16T14:49:21;5.80;;;2.00;;
45842;SDS011;31563;51.744;8.252;2024-01-16T14:51:51;6.82;;;2.45;;
45842;SDS011;31563;51.744;8.252;2024-01-16T14:54:18;4.10;;;2.10;;
45842;SDS011;31563;51.744;8.252;2024-01-16T14:56:46;4.95;;;2.13;;
45842;SDS011;31563;51.744;8.252;2024-01-16T14:59:15;20.67;;;3.70;;
45842;SDS011;31563;51.744;8.252;2024-01-16T15:01:43;19.98;;;3.42;;
45842;SDS011;31563;51.744;8.252;2024-01-16T15:04:11;20.80;;;3.63;;
45842;SDS011;31563;51.744;8.252;2024-01-16T15:06:39;14.98;;;2.88;;
45842;SDS011;31563;51.744;8.252;2024-01-16T15:09:09;20.50;;;3.58;;
45842;SDS011;31563;51.744;8.252;2024-01-16T15:11:38;13.52;;;3.03;;
45842;SDS011;31563;51.744;8.252;2024-01-16T15:14:06;21.92;;;3.80;;
45842;SDS011;31563;51.744;8.252;2024-01-16T15:16:34;13.15;;;2.60;;
45842;SDS011;31563;51.744;8.252;2024-01-16T15:19:02;13.10;;;2.50;;
45842;SDS011;31563;51.744;8.252;2024-01-16T15:21:30;13.23;;;3.17;;